Time;durP1;ratioP1;P1;durP2;ratioP2;P2;SDS_P1;SDS_P2;PMS_P1;PMS_P2;Temp;Humidity;BMP_temperature;BMP_pressure;BME280_temperature;BME280_humidity;BME280_pressure;Samples;Min_cycle;Max_cycle;Signal;HPM_P1;HPM_P2
2023/02/03 00:00:10;;;;;;;4.27;3.13;;;1.20;99.90;;;0.97;78.93;100606.81;5054112;28;20241;-63
2023/02/03 00:02:39;;;;;;;5.47;3.37;;;1.20;99.90;;;0.97;79.23;100616.97;5050017;28;20210;-62
2023/02/03 00:05:08;;;;;;;6.63;3.30;;;1.20;99.90;;;0.96;79.32;100611.03;5054155;28;20292;-62
2023/02/03 00:07:38;;;;;;;4.50;3.07;;;1.20;99.90;;;0.95;78.86;100611.81;5053366;28;20232;-61
2023/02/03 00:10:08;;;;;;;4.60;2.70;;;1.20;99.90;;;0.96;78.83;100605.09;5054816;28;20259;-62
2023/02/03 00:12:36;;;;;;;3.37;2.43;;;1.20;99.90;;;0.95;77.98;100603.34;5051923;28;20632;-61
2023/02/03 00:15:06;;;;;;;3.53;2.53;;;1.10;99.90;;;0.92;78.02;100598.16;5054760;28;20237;-60
2023/02/03 00:17:36;;;;;;;3.37;2.50;;;1.10;99.90;;;0.90;78.04;100593.06;5053993;28;20214;-62
2023/02/03 00:20:05;;;;;;;4.77;2.67;;;1.10;99.90;;;0.89;78.04;100603.16;5053335;28;20244;-65
2023/02/03 00:22:34;;;;;;;4.07;2.37;;;1.10;99.90;;;0.85;77.79;100606.38;5047491;28;20206;-63
2023/02/03 00:25:03;;;;;;;5.07;2.70;;;1.00;99.90;;;0.83;77.96;100611.38;5049139;28;20210;-61
2023/02/03 00:27:32;;;;;;;5.17;2.63;;;1.10;99.90;;;0.80;77.16;100612.94;5054952;28;20263;-62
2023/02/03 00:30:00;;;;;;;4.17;2.50;;;1.00;99.90;;;0.77;77.31;100615.38;5052567;28;20643;-63
2023/02/03 00:32:30;;;;;;;3.30;2.30;;;0.90;99.90;;;0.72;77.71;100610.13;5049840;28;20225;-62
2023/02/03 00:35:00;;;;;;;5.93;2.47;;;0.90;99.90;;;0.70;77.64;100619.34;5053251;28;20241;-63
2023/02/03 00:37:28;;;;;;;5.13;2.37;;;0.80;99.90;;;0.67;77.58;100621.78;5054302;28;20210;-62
2023/02/03 00:39:56;;;;;;;2.67;2.17;;;0.80;99.90;;;0.63;77.71;100609.81;5055280;28;20225;-61
2023/02/03 00:42:25;;;;;;;3.23;2.40;;;0.80;99.90;;;0.60;76.95;100614.75;5046364;28;20220;-61
2023/02/03 00:44:53;;;;;;;4.83;2.47;;;0.70;99.90;;;0.57;77.63;100612.09;5052489;28;20217;-60
2023/02/03 00:47:22;;;;;;;2.93;2.20;;;0.70;99.90;;;0.54;77.39;100629.72;5053315;28;20613;-61
2023/02/03 00:49:50;;;;;;;3.83;2.40;;;0.70;99.90;;;0.50;77.50;100627.88;5054734;28;20260;-62
2023/02/03 00:52:20;;;;;;;2.00;1.73;;;0.70;99.90;;;0.47;77.08;100642.16;5051420;28;20198;-65
2023/02/03 00:54:49;;;;;;;2.07;1.70;;;0.70;99.90;;;0.45;77.18;100636.19;5054201;28;20210;-60
2023/02/03 00:57:17;;;;;;;3.47;2.07;;;0.60;99.90;;;0.39;77.46;100643.53;5045354;28;20211;-62
2023/02/03 00:59:45;;;;;;;4.73;2.37;;;0.60;99.90;;;0.36;77.70;100643.41;5052250;28;20209;-62
2023/02/03 01:02:15;;;;;;;3.57;2.00;;;0.50;99.90;;;0.34;77.55;100639.13;5053494;28;20209;-63
2023/02/03 01:04:44;;;;;;;3.23;2.20;;;0.50;99.90;;;0.31;77.50;100637.31;5051277;28;20206;-62
2023/02/03 01:07:14;;;;;;;3.87;2.13;;;0.50;99.90;;;0.32;77.81;100640.69;5054256;28;20206;-61
2023/02/03 01:09:44;;;;;;;3.67;1.90;;;0.50;99.90;;;0.32;77.44;100640.69;5052901;28;20206;-63
2023/02/03 01:12:12;;;;;;;2.10;1.93;;;0.50;99.90;;;0.34;77.93;100644.19;5052117;28;20206;-63
2023/02/03 01:14:41;;;;;;;2.07;1.77;;;0.50;99.90;;;0.37;77.51;100642.63;5049615;28;20210;-61
2023/02/03 01:17:09;;;;;;;4.13;1.87;;;0.60;99.90;;;0.40;77.88;100646.94;5053662;28;20198;-62
2023/02/03 01:19:37;;;;;;;5.17;2.50;;;0.60;99.90;;;0.45;77.93;100651.38;5053063;28;20280;-64
2023/02/03 01:22:06;;;;;;;4.67;2.60;;;0.70;99.90;;;0.48;77.24;100650.66;5053681;28;20473;-62
2023/02/03 01:24:34;;;;;;;5.27;2.17;;;0.70;99.90;;;0.48;77.28;100651.50;5052881;28;20206;-63
2023/02/03 01:27:05;;;;;;;5.10;1.97;;;0.70;99.90;;;0.52;77.52;100646.56;5052425;28;20217;-61
2023/02/03 01:29:33;;;;;;;2.47;1.87;;;0.70;99.90;;;0.56;77.41;100653.47;5052631;28;20737;-62
2023/02/03 01:32:02;;;;;;;3.37;2.03;;;0.70;99.90;;;0.56;76.88;100643.34;5048911;28;20202;-63
2023/02/03 01:34:30;;;;;;;3.60;1.77;;;0.80;99.90;;;0.61;76.83;100646.91;5052569;28;20241;-64
2023/02/03 01:36:58;;;;;;;2.70;1.73;;;0.80;99.90;;;0.61;76.61;100644.38;5053218;28;20206;-62
2023/02/03 01:39:27;;;;;;;2.67;1.97;;;0.80;99.90;;;0.61;76.77;100642.69;5052747;28;20209;-62
2023/02/03 01:41:56;;;;;;;3.40;2.23;;;0.80;99.90;;;0.62;76.42;100649.47;5054198;28;20628;-62
2023/02/03 01:44:45;;;;;;;3.77;2.47;;;0.80;99.90;;;0.65;76.40;100643.69;5052167;28;20252;-62
2023/02/03 01:47:27;;;;;;;4.33;2.53;;;0.90;99.90;;;0.67;76.88;100632.78;5043662;28;20202;-64
2023/02/03 01:50:05;;;;;;;4.07;2.00;;;0.90;99.90;;;0.67;76.58;100632.78;5052782;28;20582;-61
2023/02/03 01:52:35;;;;;;;2.67;2.17;;;0.90;99.90;;;0.67;76.39;100627.72;5047395;28;20205;-63
2023/02/03 01:55:08;;;;;;;3.67;2.00;;;0.90;99.90;;;0.66;76.00;100617.50;5052658;28;20202;-63
2023/02/03 01:57:43;;;;;;;5.23;1.90;;;0.90;99.90;;;0.70;76.21;100624.41;5052049;28;20214;-62
2023/02/03 02:00:15;;;;;;;2.43;1.77;;;0.90;99.90;;;0.70;75.74;100624.41;5050368;28;20198;-62
2023/02/03 02:02:47;;;;;;;2.47;1.97;;;0.90;99.90;;;0.69;75.18;100622.69;5052175;28;20211;-63
2023/02/03 02:05:25;;;;;;;2.20;1.87;;;0.90;99.90;;;0.68;75.39;100628.59;5054261;28;20229;-63
2023/02/03 02:07:54;;;;;;;4.40;2.40;;;0.90;99.90;;;0.72;74.97;100631.28;5052401;28;20257;-65
2023/02/03 02:10:23;;;;;;;3.10;2.07;;;0.90;99.90;;;0.73;75.08;100632.13;5050599;28;20214;-63
2023/02/03 02:12:55;;;;;;;3.70;1.73;;;0.90;99.90;;;0.73;74.61;100634.69;5053971;28;20216;-63
2023/02/03 02:15:34;;;;;;;1.70;1.50;;;1.00;99.90;;;0.71;73.61;100613.47;5051109;28;20251;-63
2023/02/03 02:18:23;;;;;;;3.67;1.70;;;0.90;99.90;;;0.69;73.31;100617.63;5053541;28;20570;-62
2023/02/03 02:21:31;;;;;;;2.87;2.30;;;0.90;99.90;;;0.66;72.88;100607.34;5039892;28;20218;-63
2023/02/03 02:24:53;;;;;;;2.77;1.80;;;0.90;99.90;;;0.66;73.33;100603.19;5049717;28;20256;-61
2023/02/03 02:28:12;;;;;;;4.87;2.20;;;0.80;99.90;;;0.63;72.39;100594.59;5025967;28;20206;-63
2023/02/03 02:31:05;;;;;;;3.60;1.93;;;0.80;99.90;;;0.65;72.80;100606.50;5049716;28;20230;-63
2023/02/03 02:33:43;;;;;;;1.97;1.50;;;0.80;99.90;;;0.67;72.80;100606.56;5045910;28;20208;-63
2023/02/03 02:36:27;;;;;;;1.70;1.50;;;0.80;99.90;;;0.68;71.99;100608.28;5047722;28;20267;-61
2023/02/03 02:39:04;;;;;;;2.10;1.40;;;0.90;99.90;;;0.65;71.25;100601.44;5051807;28;20206;-60
2023/02/03 02:41:40;;;;;;;2.53;1.87;;;0.80;99.90;;;0.63;71.54;100594.59;5050724;28;20267;-62
2023/02/03 02:44:14;;;;;;;2.50;1.40;;;0.80;99.90;;;0.60;71.11;100581.78;5045102;28;20646;-62
2023/02/03 02:46:48;;;;;;;3.30;1.70;;;0.80;99.90;;;0.61;71.53;100589.44;5052211;28;20206;-62
2023/02/03 02:49:23;;;;;;;4.23;1.60;;;0.80;99.90;;;0.61;71.62;100593.66;5051630;28;20617;-62
2023/02/03 02:51:53;;;;;;;2.67;1.50;;;0.80;99.90;;;0.59;71.50;100590.19;5048662;28;20551;-62
2023/02/03 02:54:25;;;;;;;2.10;1.63;;;0.80;99.90;;;0.58;71.74;100601.16;5051834;28;20228;-61
2023/02/03 02:56:57;;;;;;;2.40;1.43;;;0.70;99.90;;;0.54;71.69;100589.16;5053543;28;20205;-62
2023/02/03 02:59:26;;;;;;;2.93;1.50;;;0.70;99.90;;;0.52;71.67;100595.88;5050551;28;20210;-61
2023/02/03 03:01:54;;;;;;;2.40;1.20;;;0.70;99.90;;;0.50;71.90;100587.31;5049696;28;20229;-63
2023/02/03 03:04:28;;;;;;;2.20;1.57;;;0.60;99.90;;;0.46;72.21;100587.19;5049626;28;20662;-62
2023/02/03 03:07:01;;;;;;;2.80;1.70;;;0.60;99.90;;;0.43;71.92;100586.22;5051870;28;20194;-63
2023/02/03 03:09:36;;;;;;;2.40;1.30;;;0.50;99.90;;;0.38;72.30;100600.41;5041981;28;20642;-61
2023/02/03 03:12:13;;;;;;;2.23;1.67;;;0.50;99.90;;;0.30;72.41;100600.09;5051692;28;20240;-62
2023/02/03 03:14:47;;;;;;;2.10;1.40;;;0.50;99.90;;;0.23;72.77;100593.06;5053605;28;20236;-62
2023/02/03 03:17:23;;;;;;;3.50;2.00;;;0.40;99.90;;;0.20;73.01;100592.94;5052400;28;20202;-63
2023/02/03 03:20:00;;;;;;;2.63;1.50;;;0.40;99.90;;;0.18;72.96;100594.53;5049631;28;20241;-61
2023/02/03 03:22:34;;;;;;;2.57;1.87;;;0.30;99.90;;;0.11;73.59;100596.00;5049668;28;20594;-64
2023/02/03 03:25:13;;;;;;;3.03;1.70;;;0.30;99.90;;;0.09;73.60;100605.19;5044151;28;20209;-63
2023/02/03 03:27:48;;;;;;;3.53;1.70;;;0.30;99.90;;;0.08;73.65;100597.53;5052158;28;20201;-62
2023/02/03 03:30:22;;;;;;;4.53;2.00;;;0.20;99.90;;;0.02;73.94;100593.09;5051510;28;20295;-62
2023/02/03 03:32:53;;;;;;;3.40;1.90;;;0.20;99.90;;;0.01;74.06;100596.44;5038960;28;20201;-63
2023/02/03 03:35:28;;;;;;;3.70;1.60;;;0.20;99.90;;;0.00;74.44;100599.78;5053150;28;20263;-62
2023/02/03 03:38:03;;;;;;;3.10;2.20;;;0.10;99.90;;;-0.05;74.37;100589.44;5045775;28;20228;-64
2023/02/03 03:40:38;;;;;;;3.30;2.00;;;0.10;99.90;;;-0.04;74.64;100588.66;5050209;28;20206;-63
2023/02/03 03:43:14;;;;;;;5.03;2.27;;;0.10;99.90;;;-0.06;74.25;100584.31;5052743;28;20603;-63
2023/02/03 03:45:51;;;;;;;3.73;2.53;;;0.10;99.90;;;-0.09;74.66;100580.00;5052442;28;20297;-64
2023/02/03 03:48:27;;;;;;;3.70;2.50;;;0.00;99.90;;;-0.12;74.65;100579.00;5051688;28;20277;-63
2023/02/03 03:51:03;;;;;;;4.27;2.60;;;0.00;99.90;;;-0.15;74.74;100579.72;5050500;28;20275;-62
2023/02/03 03:53:37;;;;;;;3.70;3.10;;;0.00;99.90;;;-0.17;74.51;100577.97;5052011;28;20263;-61
2023/02/03 03:56:12;;;;;;;4.17;3.00;;;-0.10;99.90;;;-0.18;74.75;100594.84;5051556;28;20201;-62
2023/02/03 03:58:46;;;;;;;5.63;3.23;;;-0.10;99.90;;;-0.22;74.55;100582.84;5048510;28;20756;-62
2023/02/03 04:01:16;;;;;;;4.47;3.13;;;-0.10;99.90;;;-0.23;74.69;100588.69;5052635;28;20599;-63
2023/02/03 04:03:50;;;;;;;6.07;3.20;;;-0.10;99.90;;;-0.26;74.95;100586.03;5051732;28;20206;-63
2023/02/03 04:06:19;;;;;;;3.57;2.90;;;-0.10;99.90;;;-0.28;75.02;100586.00;5051667;28;20620;-62
2023/02/03 04:08:48;;;;;;;4.77;3.07;;;-0.20;99.90;;;-0.28;75.16;100587.66;5053124;28;20206;-64
2023/02/03 04:12:00;;;;;;;3.40;2.63;;;-0.20;99.90;;;-0.29;75.22;100588.47;5051682;28;20263;-64
2023/02/03 04:14:05;;;;;;;5.67;3.60;;;-0.20;99.90;;;-0.29;75.25;100588.47;5047560;28;20225;-64
2023/02/03 04:16:33;;;;;;;4.30;3.10;;;-0.20;99.90;;;-0.31;75.39;100592.59;5050607;28;20285;-64
2023/02/03 04:19:02;;;;;;;6.50;3.37;;;-0.20;99.90;;;-0.32;75.41;100596.78;5050661;28;20264;-63
2023/02/03 04:21:31;;;;;;;3.87;2.70;;;-0.20;99.90;;;-0.34;75.35;100587.41;5049930;28;20610;-64
2023/02/03 04:24:00;;;;;;;6.73;3.30;;;-0.20;99.90;;;-0.38;75.32;100586.41;5052186;28;20206;-64
2023/02/03 04:26:28;;;;;;;4.80;3.30;;;-0.20;99.90;;;-0.41;75.34;100586.28;5050984;28;20682;-63
2023/02/03 04:28:57;;;;;;;4.97;3.20;;;-0.30;99.90;;;-0.41;75.50;100586.28;5046988;28;20247;-63
2023/02/03 04:31:25;;;;;;;4.90;3.10;;;-0.30;99.90;;;-0.43;75.80;100585.38;5040530;28;20202;-63
2023/02/03 04:33:53;;;;;;;3.47;2.63;;;-0.30;99.90;;;-0.44;75.82;100585.28;5053872;28;20202;-63
2023/02/03 04:36:22;;;;;;;7.47;3.33;;;-0.30;99.90;;;-0.43;75.75;100594.63;5054441;28;20241;-63
2023/02/03 04:38:52;;;;;;;4.27;2.93;;;-0.30;99.90;;;-0.47;75.68;100593.63;5054993;28;20205;-63
2023/02/03 04:41:20;;;;;;;3.30;2.80;;;-0.30;99.90;;;-0.47;75.96;100595.31;5053995;28;20263;-62
2023/02/03 04:43:49;;;;;;;5.60;3.80;;;-0.40;99.90;;;-0.48;76.03;100594.41;5055784;28;20241;-63
2023/02/03 04:46:18;;;;;;;7.37;3.27;;;-0.40;99.90;;;-0.47;75.96;100593.63;5048304;28;20208;-62
2023/02/03 04:48:46;;;;;;;6.40;3.40;;;-0.50;99.90;;;-0.51;75.81;100587.59;5053223;28;20202;-61
2023/02/03 04:51:15;;;;;;;5.27;3.17;;;-0.40;99.90;;;-0.52;76.08;100588.38;5053240;28;20214;-63
2023/02/03 04:53:43;;;;;;;4.93;3.37;;;-0.40;99.90;;;-0.52;76.14;100593.41;5054539;28;20206;-63
2023/02/03 04:56:14;;;;;;;6.13;3.67;;;-0.40;99.90;;;-0.51;76.17;100587.59;5056175;28;20205;-63
2023/02/03 04:58:43;;;;;;;5.93;4.10;;;-0.40;99.90;;;-0.51;76.20;100581.66;5053991;28;20289;-64
2023/02/03 05:01:11;;;;;;;9.93;4.10;;;-0.40;99.90;;;-0.54;75.83;100577.31;5054267;28;20263;-63
2023/02/03 05:03:40;;;;;;;7.37;3.93;;;-0.40;99.90;;;-0.54;76.36;100572.25;5053473;28;20875;-61
2023/02/03 05:06:08;;;;;;;5.47;4.10;;;-0.40;99.90;;;-0.56;76.24;100566.25;5049227;28;20245;-64
2023/02/03 05:08:37;;;;;;;6.73;4.03;;;-0.40;99.90;;;-0.57;76.22;100567.06;5052113;28;20206;-63
2023/02/03 05:11:05;;;;;;;6.00;4.37;;;-0.40;99.90;;;-0.57;76.62;100569.59;5050261;28;20263;-62
2023/02/03 05:13:35;;;;;;;4.93;4.10;;;-0.40;99.90;;;-0.59;76.54;100557.69;5055689;28;20209;-64
2023/02/03 05:16:04;;;;;;;5.40;3.87;;;-0.50;99.90;;;-0.61;76.64;100550.03;5055491;28;20251;-63
2023/02/03 05:18:33;;;;;;;6.77;4.33;;;-0.50;99.90;;;-0.60;76.49;100551.75;5054573;28;20677;-63
2023/02/03 05:21:01;;;;;;;5.00;3.80;;;-0.50;99.90;;;-0.57;76.95;100556.09;5050434;28;20612;-62
2023/02/03 05:23:30;;;;;;;6.27;4.30;;;-0.40;99.90;;;-0.56;76.97;100555.28;5050858;28;20260;-62
2023/02/03 05:25:58;;;;;;;4.67;3.57;;;-0.40;99.90;;;-0.57;76.92;100551.88;5040060;28;20263;-63
2023/02/03 05:28:26;;;;;;;6.77;4.13;;;-0.40;99.90;;;-0.58;77.35;100555.22;5053968;28;20225;-63
2023/02/03 05:30:58;;;;;;;5.27;3.70;;;-0.40;99.90;;;-0.57;77.10;100553.56;5053347;28;20623;-62
2023/02/03 05:33:27;;;;;;;5.80;4.17;;;-0.40;99.90;;;-0.58;77.08;100551.84;5053957;28;20223;-62
2023/02/03 05:35:56;;;;;;;4.97;3.63;;;-0.40;99.90;;;-0.58;77.24;100550.16;5053364;28;20699;-62
2023/02/03 05:38:24;;;;;;;4.73;3.37;;;-0.40;99.90;;;-0.60;77.09;100551.75;5053527;28;20202;-63
2023/02/03 05:43:39;;;;;;;7.80;4.10;;;-0.50;99.90;;;-0.56;77.46;100542.63;5054569;28;20218;-61
2023/02/03 05:46:09;;;;;;;7.57;4.10;;;-0.40;99.90;;;-0.58;77.65;100547.63;5053534;28;20213;-63
2023/02/03 05:48:37;;;;;;;10.17;3.93;;;-0.40;99.90;;;-0.59;77.81;100548.44;5053252;28;20236;-64
2023/02/03 05:51:06;;;;;;;6.43;3.70;;;-0.50;99.90;;;-0.60;77.75;100539.09;5048788;28;20205;-62
2023/02/03 05:53:34;;;;;;;5.90;3.90;;;-0.50;99.90;;;-0.60;77.79;100535.72;5050945;28;20206;-62
2023/02/03 05:56:03;;;;;;;6.13;4.20;;;-0.50;99.90;;;-0.62;78.42;100535.66;5053439;28;20650;-62
2023/02/03 05:58:31;;;;;;;5.40;3.67;;;-0.40;99.90;;;-0.59;78.35;100532.38;5049196;28;20210;-63
2023/02/03 06:00:59;;;;;;;5.13;3.70;;;-0.50;99.90;;;-0.58;78.59;100541.72;5043424;28;20263;-64
2023/02/03 06:03:29;;;;;;;5.23;3.53;;;-0.50;99.90;;;-0.60;78.44;100536.56;5049346;28;20225;-66
2023/02/03 06:05:58;;;;;;;6.13;3.93;;;-0.40;99.90;;;-0.58;78.68;100531.59;5053587;28;20213;-63
2023/02/03 06:08:27;;;;;;;5.57;3.63;;;-0.40;99.90;;;-0.56;78.71;100535.03;5046165;28;20569;-64
2023/02/03 06:10:59;;;;;;;5.87;3.63;;;-0.40;99.90;;;-0.54;78.52;100536.84;5053374;28;20241;-62
2023/02/03 06:13:28;;;;;;;6.30;3.63;;;-0.30;99.90;;;-0.52;79.11;100535.22;5052120;28;20201;-62
2023/02/03 06:15:59;;;;;;;4.67;3.50;;;-0.40;99.90;;;-0.51;78.41;100536.97;5039234;28;20646;-62
2023/02/03 06:18:28;;;;;;;6.90;4.13;;;-0.40;99.90;;;-0.50;79.11;100522.63;5050758;28;20205;-61
2023/02/03 06:20:57;;;;;;;6.63;3.67;;;0.20;99.90;;;-0.50;78.79;100520.97;5048178;28;20221;-65
2023/02/03 06:23:25;;;;;;;8.40;3.37;;;-0.30;99.90;;;-0.49;78.65;100512.56;5046576;28;20685;-70
2023/02/03 06:25:54;;;;;;;8.17;3.57;;;-0.30;99.90;;;-0.48;78.66;100510.88;5048176;28;20209;-64
2023/02/03 06:28:22;;;;;;;6.13;3.70;;;-0.30;99.90;;;-0.47;78.68;100510.09;5051493;28;20759;-64
2023/02/03 06:30:51;;;;;;;9.60;5.47;;;-0.30;99.90;;;-0.46;78.71;100508.44;5049213;28;20241;-65
2023/02/03 06:33:20;;;;;;;5.60;3.83;;;-0.30;99.90;;;-0.45;78.85;100505.09;5051037;28;20651;-63
2023/02/03 06:35:50;;;;;;;6.57;4.00;;;-0.30;99.90;;;-0.44;78.72;100500.13;5050031;28;20217;-62
2023/02/03 06:38:19;;;;;;;7.43;4.07;;;-0.30;99.90;;;-0.41;78.55;100484.16;5048104;28;20210;-62
2023/02/03 06:40:47;;;;;;;10.43;4.33;;;-0.30;99.90;;;-0.41;78.51;100479.09;5041457;28;20247;-65
2023/02/03 06:43:16;;;;;;;5.77;3.83;;;-0.30;99.90;;;-0.38;78.49;100481.75;5050531;28;20286;-65
2023/02/03 06:45:46;;;;;;;7.73;4.60;;;-0.30;99.90;;;-0.35;78.52;100482.75;5052095;28;20206;-65
2023/02/03 06:48:15;;;;;;;6.40;4.40;;;-0.20;99.90;;;-0.31;78.33;100476.13;5049360;28;20332;-63
2023/02/03 06:50:44;;;;;;;7.33;5.20;;;-0.20;99.90;;;-0.27;78.46;100475.44;5047622;28;20242;-66
2023/02/03 06:53:17;;;;;;;10.03;5.33;;;-0.10;99.90;;;-0.21;78.41;100470.63;5049069;28;20202;-64
2023/02/03 06:55:46;;;;;;;7.17;5.13;;;-0.10;99.90;;;-0.15;78.27;100465.78;5051268;28;20263;-68
2023/02/03 06:58:15;;;;;;;7.67;4.63;;;0.00;99.90;;;-0.08;78.06;100461.81;5050587;28;20204;-63
2023/02/03 07:00:44;;;;;;;8.90;5.10;;;0.00;99.90;;;0.01;77.86;100456.25;5047884;28;20620;-63
2023/02/03 07:03:12;;;;;;;7.47;4.27;;;0.10;99.90;;;0.05;77.27;100441.22;5051089;28;20613;-67
2023/02/03 07:05:40;;;;;;;8.43;4.47;;;0.20;99.90;;;0.11;77.07;100454.13;5052217;28;20800;-66
2023/02/03 07:08:09;;;;;;;7.50;5.07;;;0.20;99.90;;;0.17;77.06;100444.19;5045662;28;20214;-68
2023/02/03 07:10:38;;;;;;;8.40;5.10;;;0.30;99.90;;;0.23;76.44;100441.88;5047247;28;20230;-66
2023/02/03 07:13:07;;;;;;;10.93;5.33;;;0.30;99.90;;;0.26;76.33;100443.69;5048612;28;20206;-64
2023/02/03 07:15:36;;;;;;;8.50;5.07;;;0.40;99.90;;;0.26;76.38;100433.53;5043126;28;20711;-67
2023/02/03 07:18:05;;;;;;;10.00;5.47;;;0.40;99.90;;;0.28;76.13;100421.78;5044964;28;20210;-66
2023/02/03 07:20:33;;;;;;;10.70;5.40;;;0.50;99.90;;;0.38;75.60;100421.28;5049567;28;20573;-69
2023/02/03 07:23:02;;;;;;;6.93;4.73;;;0.60;99.90;;;0.50;76.11;100418.31;5048261;28;20221;-67
2023/02/03 07:25:31;;;;;;;10.67;4.77;;;0.60;99.90;;;0.68;75.54;100420.63;5048005;28;20253;-68
2023/02/03 07:28:01;;;;;;;7.80;4.60;;;0.80;99.90;;;0.84;75.04;100407.66;5051195;28;20222;-66
2023/02/03 07:30:30;;;;;;;8.40;4.03;;;1.00;99.90;;;0.96;74.64;100409.75;5048725;28;20304;-65
2023/02/03 07:32:58;;;;;;;8.23;4.43;;;1.10;99.90;;;1.06;74.55;100403.28;5049818;28;20215;-67
2023/02/03 07:35:27;;;;;;;7.83;4.63;;;1.20;99.90;;;1.14;73.46;100404.38;5050159;28;20257;-67
2023/02/03 07:37:55;;;;;;;8.90;4.33;;;1.30;99.90;;;1.21;72.97;100398.69;5048121;28;20205;-69
2023/02/03 07:40:24;;;;;;;8.07;4.43;;;1.40;99.90;;;1.30;72.65;100396.47;5048510;28;20206;-69
2023/02/03 07:42:53;;;;;;;8.23;4.37;;;1.50;99.90;;;1.40;71.95;100395.94;5049004;28;20681;-70
2023/02/03 07:45:23;;;;;;;7.90;4.90;;;1.60;99.90;;;1.49;71.80;100390.28;5049330;28;20229;-69
2023/02/03 07:47:52;;;;;;;8.40;4.60;;;1.70;99.90;;;1.58;71.92;100376.97;5049306;28;20210;-71
2023/02/03 07:50:20;;;;;;;7.47;3.50;;;1.80;99.90;;;1.67;70.95;100372.19;5050642;28;20649;-68
2023/02/03 07:52:51;;;;;;;6.70;4.20;;;1.80;99.90;;;1.80;70.89;100366.63;5048506;28;20259;-69
2023/02/03 07:55:20;;;;;;;5.40;3.63;;;1.90;99.90;;;1.91;69.84;100362.75;5050149;28;20568;-68
2023/02/03 07:57:48;;;;;;;5.70;3.80;;;2.00;99.90;;;2.03;69.60;100353.75;5046180;28;20716;-67
2023/02/03 08:00:18;;;;;;;4.93;3.20;;;2.10;99.90;;;2.14;69.49;100354.91;5046948;28;20523;-67
2023/02/03 08:02:49;;;;;;;6.90;3.43;;;2.20;99.90;;;2.26;68.84;100345.06;5045593;28;20221;-68
2023/02/03 08:05:18;;;;;;;11.23;4.23;;;2.40;99.90;;;2.38;68.73;100342.81;5047295;28;20859;-66
2023/02/03 08:07:47;;;;;;;7.13;3.30;;;2.50;99.90;;;2.54;67.95;100340.66;5052816;28;20708;-68
2023/02/03 08:10:16;;;;;;;6.53;3.80;;;2.70;99.90;;;2.66;67.26;100338.47;5054045;28;20716;-69
2023/02/03 08:12:45;;;;;;;6.10;3.57;;;2.80;99.90;;;2.75;66.25;100336.13;5053723;28;20221;-65
2023/02/03 08:15:16;;;;;;;5.03;2.90;;;2.90;99.90;;;2.78;65.41;100332.81;5044538;28;20201;-65
2023/02/03 08:17:45;;;;;;;4.53;3.27;;;2.90;99.90;;;2.80;64.89;100332.03;5049639;28;20678;-63
2023/02/03 08:20:15;;;;;;;7.27;3.20;;;3.00;99.90;;;2.91;65.28;100319.56;5045710;28;20198;-64
2023/02/03 08:22:44;;;;;;;6.37;3.03;;;3.10;99.90;;;3.00;65.23;100319.75;5049372;28;20267;-64
2023/02/03 08:25:16;;;;;;;8.37;3.77;;;3.20;99.90;;;3.13;64.27;100328.56;5049447;28;20237;-65
2023/02/03 08:27:44;;;;;;;8.77;3.50;;;3.30;99.90;;;3.19;63.91;100317.66;5047929;28;20195;-69
2023/02/03 08:30:15;;;;;;;7.05;4.47;;;3.30;99.90;;;3.23;64.14;100317.75;5053702;28;20865;-66
2023/02/03 08:32:43;;;;;;;7.87;4.07;;;3.40;99.90;;;3.36;63.66;100324.84;5053555;28;20567;-66
2023/02/03 08:35:16;;;;;;;10.33;3.73;;;3.50;99.90;;;3.45;63.01;100308.03;5056347;28;20205;-69
2023/02/03 08:37:45;;;;;;;5.93;3.40;;;3.50;99.90;;;3.50;62.45;100303.88;5050754;28;20198;-68
2023/02/03 08:40:14;;;;;;;4.60;3.10;;;3.60;99.90;;;3.62;62.24;100297.38;5050951;28;20214;-68
2023/02/03 08:42:42;;;;;;;5.30;3.40;;;3.70;99.90;;;3.76;61.71;100284.91;5052372;28;20273;-64
2023/02/03 08:45:11;;;;;;;6.73;3.33;;;3.80;99.90;;;3.86;61.07;100276.59;5053854;28;20230;-63
2023/02/03 08:47:39;;;;;;;6.30;3.60;;;3.90;99.90;;;3.84;60.60;100273.16;5051604;28;20206;-67
2023/02/03 08:50:10;;;;;;;6.57;3.50;;;4.00;99.90;;;3.76;60.13;100284.91;5051652;28;20218;-67
2023/02/03 08:52:40;;;;;;;7.10;3.43;;;3.90;99.90;;;3.75;60.72;100275.53;5046097;28;20666;-62
2023/02/03 08:55:11;;;;;;;6.40;3.80;;;3.90;99.90;;;3.86;59.80;100281.69;5053987;28;20210;-63
2023/02/03 08:57:40;;;;;;;5.97;3.53;;;4.10;99.90;;;4.06;59.53;100273.59;5051807;28;20213;-64
2023/02/03 09:00:12;;;;;;;5.97;3.27;;;4.30;99.90;;;4.37;59.90;100254.56;5047860;28;20670;-63
2023/02/03 09:02:40;;;;;;;6.73;3.13;;;4.50;99.90;;;4.62;58.70;100255.81;5050918;28;20783;-63
2023/02/03 09:05:10;;;;;;;4.77;2.67;;;4.70;99.90;;;4.75;57.16;100250.09;5051540;28;20234;-63
2023/02/03 09:07:40;;;;;;;5.73;3.20;;;4.90;99.90;;;4.95;56.19;100244.41;5048742;28;20667;-64
2023/02/03 09:10:09;;;;;;;5.20;2.97;;;5.00;99.90;;;5.10;55.86;100239.50;5047614;28;20287;-62
2023/02/03 09:12:38;;;;;;;5.40;3.10;;;5.20;99.90;;;5.31;55.02;100231.28;5043208;28;20674;-61
2023/02/03 09:15:07;;;;;;;3.80;2.93;;;5.40;99.90;;;5.68;54.68;100218.94;5048849;28;20202;-62
2023/02/03 09:17:35;;;;;;;4.57;3.00;;;5.80;99.90;;;6.25;53.36;100221.22;5042385;28;20649;-65
2023/02/03 09:20:05;;;;;;;6.73;2.70;;;6.30;99.90;;;6.64;51.85;100222.41;5045237;28;20663;-63
2023/02/03 09:22:33;;;;;;;5.17;2.97;;;6.70;99.90;;;6.78;50.57;100220.81;5047398;28;20939;-65
2023/02/03 09:25:03;;;;;;;6.27;2.93;;;6.70;99.90;;;6.89;49.15;100212.34;5049318;28;20697;-64
2023/02/03 09:27:32;;;;;;;4.93;2.57;;;6.80;99.90;;;7.09;49.83;100205.59;5047962;28;20210;-62
2023/02/03 09:30:00;;;;;;;4.90;2.80;;;7.10;99.90;;;7.26;48.06;100198.88;5050816;28;20706;-65
2023/02/03 09:32:28;;;;;;;4.33;2.63;;;7.30;99.90;;;7.29;47.75;100185.22;5046311;28;20241;-63
2023/02/03 09:34:57;;;;;;;5.50;3.07;;;7.40;99.90;;;7.25;48.04;100181.78;5048823;28;20260;-64
2023/02/03 09:37:25;;;;;;;4.80;2.80;;;7.30;99.90;;;7.10;46.29;100176.56;5052599;28;20393;-65
2023/02/03 09:39:55;;;;;;;5.50;2.57;;;7.10;99.90;;;7.01;46.90;100179.09;5047451;28;20264;-67
2023/02/03 09:42:55;;;;;;;3.50;2.10;;;7.00;99.90;;;7.09;47.29;100166.31;5046404;28;20248;-66
2023/02/03 09:45:30;;;;;;;5.30;2.20;;;7.10;99.90;;;7.10;45.86;100155.22;5048308;28;20252;-66
2023/02/03 09:48:06;;;;;;;3.17;2.37;;;7.10;99.90;;;7.42;46.07;100150.22;5048585;28;20194;-64
2023/02/03 09:50:36;;;;;;;5.10;2.10;;;7.50;99.90;;;8.01;45.56;100139.19;5035526;28;20198;-65
2023/02/03 09:53:12;;;;;;;2.90;2.10;;;8.00;98.70;;;8.70;44.21;100137.44;5044475;28;20210;-65
2023/02/03 09:55:44;;;;;;;3.67;2.20;;;8.60;98.00;;;9.01;41.26;100121.91;5042529;28;20201;-66
2023/02/03 09:58:17;;;;;;;5.83;2.10;;;8.80;94.20;;;9.27;40.32;100118.38;5050879;28;20260;-66
2023/02/03 10:00:50;;;;;;;2.93;2.17;;;9.00;92.80;;;9.47;39.70;100106.28;5050366;28;20202;-66
2023/02/03 10:03:28;;;;;;;2.57;1.97;;;9.30;91.70;;;9.24;40.35;100105.53;5051930;28;20208;-66
2023/02/03 10:06:16;;;;;;;3.00;2.27;;;9.10;91.00;;;9.12;40.50;100088.47;5048270;28;20617;-62
2023/02/03 10:09:04;;;;;;;3.87;2.00;;;8.90;91.10;;;9.05;39.76;100085.06;5048609;28;20209;-63
2023/02/03 10:12:00;;;;;;;2.83;2.20;;;8.90;90.40;;;9.08;40.31;100085.06;5044312;28;20201;-63
2023/02/03 10:14:46;;;;;;;3.40;1.80;;;9.00;90.90;;;9.57;39.06;100073.63;5044205;28;20724;-65
2023/02/03 10:17:30;;;;;;;2.70;1.60;;;9.40;88.60;;;10.52;37.84;100067.66;5048004;28;20617;-61
2023/02/03 10:20:06;;;;;;;4.77;3.23;;;10.20;85.60;;;11.66;36.95;100054.09;5051372;28;20194;-65
2023/02/03 10:22:40;;;;;;;2.27;1.67;;;11.20;85.70;;;12.87;33.17;100050.19;5046013;28;20339;-65
2023/02/03 10:25:23;;;;;;;2.53;1.50;;;12.10;76.60;;;13.39;31.48;100038.72;5048533;28;20222;-63
2023/02/03 10:27:55;;;;;;;3.37;1.50;;;12.70;72.40;;;13.49;31.23;100032.44;5041525;28;20667;-64
2023/02/03 10:30:28;;;;;;;4.33;1.30;;;12.90;71.60;;;13.12;30.84;100024.66;5043186;28;21108;-64
2023/02/03 10:33:02;;;;;;;3.20;1.57;;;12.50;66.90;;;13.32;31.22;100037.16;5048973;28;20281;-65
2023/02/03 10:35:39;;;;;;;1.97;1.60;;;12.90;68.30;;;13.20;29.84;100007.19;5049091;28;20677;-67
2023/02/03 10:38:15;;;;;;;3.53;1.60;;;12.70;64.40;;;12.61;30.46;99995.59;5050832;28;20262;-68
2023/02/03 10:40:43;;;;;;;4.33;1.80;;;12.20;64.00;;;11.45;32.29;100014.88;5047096;28;20198;-66